Time;durP1;ratioP1;P1;durP2;ratioP2;P2;SDS_P1;SDS_P2;PMS_P1;PMS_P2;Temp;Humidity;BMP_temperature;BMP_pressure;BME280_temperature;BME280_humidity;BME280_pressure;Samples;Min_cycle;Max_cycle;Signal;HPM_P1;HPM_P2
2022/06/25 00:00:54;;;;;;;;;2.00;2.00;;;;;20.29;55.84;100356.81;5075425;27;45499;-65
2022/06/25 00:03:19;;;;;;;;;0.33;0.33;;;;;20.24;55.61;100351.06;5073164;27;45444;-65
2022/06/25 00:05:44;;;;;;;;;2.67;1.00;;;;;20.22;56.26;100350.34;5077647;27;45567;-65
2022/06/25 00:08:10;;;;;;;;;2.00;2.00;;;;;20.21;55.75;100343.25;5075125;27;46063;-64
2022/06/25 00:10:35;;;;;;;;;2.33;1.00;;;;;20.17;55.66;100339.16;5076803;27;46908;-64
2022/06/25 00:13:01;;;;;;;;;2.00;1.00;;;;;20.20;55.34;100330.78;5074454;27;45401;-66
2022/06/25 00:15:26;;;;;;;;;3.00;1.00;;;;;20.17;56.09;100337.31;5070291;27;45580;-66
2022/06/25 00:17:51;;;;;;;;;4.00;2.00;;;;;20.13;56.30;100343.16;5077393;27;45516;-64
2022/06/25 00:20:17;;;;;;;;;2.00;1.00;;;;;20.13;56.49;100338.63;5076978;27;45332;-65
2022/06/25 00:22:43;;;;;;;;;1.00;1.00;;;;;20.16;57.05;100335.59;5073488;27;45460;-64
2022/06/25 00:25:08;;;;;;;;;2.00;2.00;;;;;20.19;57.46;100337.19;5077873;27;45328;-65
2022/06/25 00:27:34;;;;;;;;;2.00;2.00;;;;;20.18;58.73;100338.16;5075600;27;46935;-65
2022/06/25 00:29:59;;;;;;;;;2.00;2.00;;;;;20.13;57.90;100340.47;5073577;27;45585;-63
2022/06/25 00:32:25;;;;;;;;;3.00;3.00;;;;;20.00;60.25;100344.41;5073812;27;45739;-65
2022/06/25 00:34:50;;;;;;;;;3.00;1.67;;;;;19.88;60.59;100347.47;5077625;27;45551;-63
2022/06/25 00:37:15;;;;;;;;;2.67;2.67;;;;;19.72;64.37;100345.44;5109347;27;47718;-64
2022/06/25 00:39:43;;;;;;;;;4.00;3.00;;;;;19.68;62.55;100346.75;5076120;27;45378;-65
2022/06/25 00:42:11;;;;;;;;;2.33;2.33;;;;;19.58;60.65;100341.38;5076194;27;45360;-66
2022/06/25 00:44:36;;;;;;;;;6.00;2.00;;;;;19.50;62.43;100332.31;5076847;27;45691;-65
2022/06/25 00:47:03;;;;;;;;;2.67;2.67;;;;;19.45;62.74;100341.69;5076874;27;45389;-66
2022/06/25 00:49:28;;;;;;;;;2.00;2.00;;;;;19.42;62.46;100336.63;5074989;27;45499;-65
2022/06/25 00:51:58;;;;;;;;;3.67;2.00;;;;;19.38;62.16;100351.38;5077527;27;45338;-64
2022/06/25 00:54:24;;;;;;;;;2.00;2.00;;;;;19.31;63.76;100344.03;5075857;27;45463;-64
2022/06/25 00:56:52;;;;;;;;;3.00;2.00;;;;;19.30;63.23;100353.97;5077520;27;45393;-65
2022/06/25 00:59:27;;;;;;;;;2.33;2.00;;;;;19.26;60.91;100344.47;5073258;27;45538;-64
2022/06/25 01:01:52;;;;;;;;;2.00;2.00;;;;;19.27;62.23;100348.88;5074064;27;45353;-65
2022/06/25 01:04:18;;;;;;;;;3.67;2.00;;;;;19.25;62.72;100356.25;5069929;27;45449;-64
2022/06/25 01:06:44;;;;;;;;;4.67;2.33;;;;;19.28;62.83;100345.19;5076561;27;45511;-65
2022/06/25 01:09:09;;;;;;;;;2.33;2.33;;;;;19.25;62.66;100339.22;5076191;27;45491;-67
2022/06/25 01:11:35;;;;;;;;;2.67;2.67;;;;;19.26;62.43;100349.84;5074074;27;45365;-65
2022/06/25 01:14:07;;;;;;;;;2.00;2.00;;;;;19.28;62.42;100350.59;5073567;27;45338;-65
2022/06/25 01:16:32;;;;;;;;;3.00;3.00;;;;;19.24;61.96;100338.38;5075020;27;46298;-64
2022/06/25 01:18:58;;;;;;;;;3.00;1.33;;;;;19.30;61.31;100347.75;5076274;27;45395;-67
2022/06/25 01:21:23;;;;;;;;;4.00;2.67;;;;;19.33;61.61;100344.75;5076507;27;45306;-66
2022/06/25 01:23:49;;;;;;;;;4.00;3.00;;;;;19.27;61.15;100340.78;5071487;27;45744;-65
2022/06/25 01:26:14;;;;;;;;;3.67;3.00;;;;;19.33;61.89;100359.06;5075480;27;45549;-65
2022/06/25 01:28:40;;;;;;;;;3.33;3.00;;;;;19.37;61.70;100354.22;5091295;27;45471;-65
2022/06/25 01:31:05;;;;;;;;;3.67;2.00;;;;;19.32;61.35;100343.88;5074461;27;45728;-65
2022/06/25 01:33:30;;;;;;;;;2.67;1.67;;;;;19.32;61.45;100345.75;5074094;27;45517;-65
2022/06/25 01:35:56;;;;;;;;;2.00;2.00;;;;;19.33;61.54;100348.28;5075507;27;45624;-65
2022/06/25 01:38:21;;;;;;;;;3.33;3.00;;;;;19.40;61.92;100353.91;5075853;27;45261;-65
2022/06/25 01:40:47;;;;;;;;;5.00;3.67;;;;;19.34;60.71;100349.97;5074830;27;47040;-65
2022/06/25 01:43:12;;;;;;;;;3.67;2.00;;;;;19.42;61.14;100357.34;5075894;27;45290;-63
2022/06/25 01:45:38;;;;;;;;;4.00;1.67;;;;;19.40;61.32;100357.50;5069096;28;47067;-64
2022/06/25 01:48:06;;;;;;;;;3.67;3.67;;;;;19.39;61.68;100352.22;5076697;27;45345;-66
2022/06/25 01:50:34;;;;;;;;;2.00;2.00;;;;;19.38;61.31;100348.66;5070607;27;45547;-65
2022/06/25 01:52:59;;;;;;;;;4.67;3.00;;;;;19.40;61.22;100346.69;5074731;27;46084;-65
2022/06/25 01:55:25;;;;;;;;;4.33;3.00;;;;;19.42;61.48;100360.88;5073923;27;45369;-65
2022/06/25 01:57:51;;;;;;;;;2.00;2.00;;;;;19.42;61.81;100358.19;5072482;27;45390;-66
2022/06/25 02:00:23;;;;;;;;;3.33;2.33;;;;;19.39;61.63;100353.06;5074618;28;45560;-64
2022/06/25 02:02:49;;;;;;;;;2.00;0.00;;;;;19.42;61.71;100358.19;5075005;27;45437;-65
2022/06/25 02:05:16;;;;;;;;;1.33;1.33;;;;;19.39;61.79;100361.16;5071927;27;46197;-64
2022/06/25 02:07:41;;;;;;;;;1.67;1.67;;;;;19.41;61.95;100367.28;5075728;27;45396;-64
2022/06/25 02:10:08;;;;;;;;;3.00;3.00;;;;;19.41;61.36;100361.88;5072145;27;45459;-65
2022/06/25 02:12:33;;;;;;;;;2.00;2.00;;;;;19.43;61.21;100356.34;5075640;28;45466;-65
2022/06/25 02:14:59;;;;;;;;;1.00;1.00;;;;;19.39;62.12;100366.53;5075461;28;45314;-65
2022/06/25 02:17:25;;;;;;;;;2.33;1.00;;;;;19.40;61.87;100362.00;5074306;27;45554;-64
2022/06/25 02:19:50;;;;;;;;;2.00;2.00;;;;;19.40;62.71;100360.19;5073475;27;46260;-65
2022/06/25 02:22:17;;;;;;;;;2.67;2.67;;;;;19.36;62.03;100353.38;5074572;27;45380;-65
2022/06/25 02:24:43;;;;;;;;;1.33;1.33;;;;;19.36;62.91;100366.84;5073991;27;45473;-65
2022/06/25 02:27:09;;;;;;;;;2.00;1.00;;;;;19.29;63.20;100359.53;5075410;27;45433;-64
2022/06/25 02:29:34;;;;;;;;;4.00;2.00;;;;;19.20;64.06;100365.78;5073019;27;45515;-65
2022/06/25 02:32:00;;;;;;;;;1.00;1.00;;;;;19.19;62.97;100361.41;5074106;27;45745;-64
2022/06/25 02:34:25;;;;;;;;;1.00;1.00;;;;;19.09;64.10;100362.25;5080185;27;46419;-65
2022/06/25 02:36:51;;;;;;;;;2.00;2.00;;;;;19.09;63.77;100356.88;5074246;27;45444;-64
2022/06/25 02:39:17;;;;;;;;;1.33;1.33;;;;;19.10;64.40;100355.03;5074329;27;45833;-64
2022/06/25 02:41:43;;;;;;;;;4.00;2.00;;;;;19.09;64.82;100358.72;5072332;27;45552;-65
2022/06/25 02:44:08;;;;;;;;;1.00;1.00;;;;;19.12;64.40;100351.19;5072470;28;45977;-64
2022/06/25 02:46:33;;;;;;;;;2.00;2.00;;;;;19.10;64.17;100363.09;5074808;27;45401;-65
2022/06/25 02:48:59;;;;;;;;;2.33;2.00;;;;;19.07;64.55;100360.72;5074461;27;45377;-65
2022/06/25 02:51:24;;;;;;;;;2.00;2.00;;;;;18.99;64.42;100357.88;5073500;27;45413;-64
2022/06/25 02:53:50;;;;;;;;;1.33;1.33;;;;;18.98;64.99;100373.22;5074890;27;46162;-63
2022/06/25 02:59:02;;;;;;;;;1.67;1.67;;;;;18.95;66.49;100386.97;5074861;27;45503;-66
2022/06/25 03:01:28;;;;;;;;;1.00;1.00;;;;;18.92;65.90;100386.44;5075140;27;45581;-64
2022/06/25 03:03:54;;;;;;;;;1.00;1.00;;;;;18.86;68.06;100380.59;5078081;27;45453;-64
2022/06/25 03:06:20;;;;;;;;;2.00;2.00;;;;;18.80;68.67;100381.19;5076875;27;45461;-64
2022/06/25 03:08:47;;;;;;;;;2.00;2.00;;;;;18.74;67.74;100376.38;5076131;27;45595;-65
2022/06/25 03:11:13;;;;;;;;;1.00;1.00;;;;;18.77;69.06;100373.41;5073310;27;46150;-64
2022/06/25 03:13:39;;;;;;;;;1.33;1.33;;;;;18.77;68.13;100380.63;5078201;27;45250;-65
2022/06/25 03:16:05;;;;;;;;;1.67;1.67;;;;;18.73;66.82;100376.50;5079201;28;45240;-64
2022/06/25 03:18:31;;;;;;;;;0.00;0.00;;;;;18.68;65.95;100379.66;5076145;27;45292;-64
2022/06/25 03:20:57;;;;;;;;;1.00;1.00;;;;;18.71;65.98;100394.66;5078079;27;45466;-64
2022/06/25 03:23:25;;;;;;;;;2.00;0.00;;;;;18.68;64.99;100384.19;5076526;27;45863;-64
2022/06/25 03:25:51;;;;;;;;;1.00;1.00;;;;;18.68;65.76;100378.78;5075291;28;45379;-65
2022/06/25 03:28:16;;;;;;;;;0.00;0.00;;;;;18.72;65.60;100375.66;5078220;28;45326;-64
2022/06/25 03:30:42;;;;;;;;;0.00;0.00;;;;;18.70;66.37;100377.66;5077569;27;46117;-64
2022/06/25 03:33:08;;;;;;;;;1.00;1.00;;;;;18.73;65.85;100371.13;5076154;27;47255;-64
2022/06/25 03:35:33;;;;;;;;;1.00;0.00;;;;;18.70;65.01;100388.44;5078138;27;45518;-64
2022/06/25 03:37:59;;;;;;;;;0.00;0.00;;;;;18.69;64.94;100386.72;5077964;27;45335;-64
2022/06/25 03:40:24;;;;;;;;;1.67;1.00;;;;;18.70;65.42;100383.03;5077485;27;45314;-64
2022/06/25 03:42:50;;;;;;;;;0.00;0.00;;;;;18.74;64.90;100394.38;5076839;27;45548;-66
2022/06/25 03:45:15;;;;;;;;;0.00;0.00;;;;;18.74;64.85;100395.22;5078977;27;45325;-66
2022/06/25 03:47:41;;;;;;;;;0.00;0.00;;;;;18.77;64.95;100394.97;5076583;28;45544;-65
2022/06/25 03:50:07;;;;;;;;;0.00;0.00;;;;;18.79;64.87;100401.06;5110192;27;45451;-65
2022/06/25 03:52:33;;;;;;;;;0.00;0.00;;;;;18.82;64.83;100403.44;5078286;27;47253;-65
2022/06/25 03:54:59;;;;;;;;;0.00;0.00;;;;;18.82;64.70;100397.22;5075847;27;45452;-65
2022/06/25 03:57:24;;;;;;;;;0.33;0.33;;;;;18.84;64.83;100401.47;5077384;27;45548;-65
2022/06/25 03:59:51;;;;;;;;;0.00;0.00;;;;;18.82;64.46;100408.84;5093115;27;45447;-64
2022/06/25 04:02:16;;;;;;;;;0.00;0.00;;;;;18.78;65.00;100402.03;5075945;28;45621;-65
2022/06/25 04:04:41;;;;;;;;;0.00;0.00;;;;;18.79;65.03;100392.97;5076228;28;45361;-64
2022/06/25 04:07:07;;;;;;;;;0.00;0.00;;;;;18.80;64.96;100405.44;5076851;27;45573;-65
2022/06/25 04:09:32;;;;;;;;;1.00;0.00;;;;;18.82;64.88;100408.84;5078728;27;45526;-65
2022/06/25 04:11:58;;;;;;;;;0.00;0.00;;;;;18.84;65.31;100409.53;5080634;27;47640;-66
2022/06/25 04:14:23;;;;;;;;;0.00;0.00;;;;;18.90;65.17;100415.38;5074765;27;45479;-64
2022/06/25 04:16:49;;;;;;;;;1.00;0.00;;;;;18.89;65.34;100414.53;5074057;27;45432;-65
2022/06/25 04:19:14;;;;;;;;;0.33;0.33;;;;;18.90;64.78;100421.59;5075091;28;45697;-65
2022/06/25 04:21:40;;;;;;;;;0.00;0.00;;;;;18.88;65.42;100420.03;5077157;27;46430;-64
2022/06/25 04:24:05;;;;;;;;;2.00;0.00;;;;;18.80;65.61;100404.59;5075937;27;45413;-66
2022/06/25 04:26:31;;;;;;;;;1.00;1.00;;;;;18.76;65.58;100403.19;5076884;27;45477;-65
2022/06/25 04:29:05;;;;;;;;;1.00;1.00;;;;;18.80;65.27;100418.91;5072305;27;45312;-63
2022/06/25 04:31:32;;;;;;;;;1.00;1.00;;;;;18.81;65.41;100414.38;5071790;27;46261;-64
2022/06/25 04:33:58;;;;;;;;;0.00;0.00;;;;;18.80;65.44;100415.38;5076821;27;45441;-64
2022/06/25 04:36:24;;;;;;;;;0.00;0.00;;;;;18.79;66.33;100419.91;5075727;27;45440;-66
2022/06/25 04:38:50;;;;;;;;;1.00;0.00;;;;;18.79;65.37;100425.28;5074184;27;45426;-64
2022/06/25 04:41:16;;;;;;;;;3.00;0.00;;;;;18.75;65.43;100428.41;5071514;27;46915;-67
2022/06/25 04:43:41;;;;;;;;;0.00;0.00;;;;;18.79;65.58;100430.69;5075719;27;45459;-65
2022/06/25 04:46:07;;;;;;;;;0.00;0.00;;;;;18.84;65.29;100441.03;5075622;27;45773;-65
2022/06/25 04:48:32;;;;;;;;;1.00;1.00;;;;;18.78;64.86;100434.38;5076357;27;45480;-66
2022/06/25 04:50:58;;;;;;;;;1.00;1.00;;;;;18.83;65.62;100434.78;5075500;27;45433;-66
2022/06/25 04:53:23;;;;;;;;;1.00;1.00;;;;;18.84;65.63;100430.25;5075822;27;45471;-65
2022/06/25 04:55:48;;;;;;;;;0.00;0.00;;;;;18.88;64.74;100438.88;5075099;27;45411;-65
2022/06/25 04:58:14;;;;;;;;;0.00;0.00;;;;;18.84;64.40;100435.63;5073646;27;45490;-66
2022/06/25 05:00:40;;;;;;;;;1.00;1.00;;;;;18.84;65.02;100446.41;5059748;27;45318;-65
2022/06/25 05:03:06;;;;;;;;;0.00;0.00;;;;;18.86;64.68;100442.56;5075488;28;45929;-65
2022/06/25 05:05:31;;;;;;;;;4.00;1.00;;;;;18.86;65.12;100442.56;5077331;27;45488;-64
2022/06/25 05:07:57;;;;;;;;;3.00;2.00;;;;;18.91;65.42;100444.00;5069826;27;45550;-64
2022/06/25 05:10:22;;;;;;;;;2.00;0.67;;;;;18.95;64.70;100450.81;5057338;28;45967;-64
2022/06/25 05:15:31;;;;;;;;;1.00;1.00;;;;;19.10;64.49;100460.16;5072868;27;45255;-65
2022/06/25 05:17:57;;;;;;;;;1.33;1.00;;;;;19.17;63.84;100461.28;5075164;27;45235;-65
2022/06/25 05:20:22;;;;;;;;;2.00;0.67;;;;;19.13;63.53;100465.25;5076148;27;45636;-64
2022/06/25 05:22:48;;;;;;;;;0.00;0.00;;;;;19.15;63.52;100468.69;5076345;27;45437;-65
2022/06/25 05:25:13;;;;;;;;;1.67;1.00;;;;;19.15;63.01;100469.53;5074098;27;45380;-65
2022/06/25 05:27:39;;;;;;;;;1.00;1.00;;;;;19.15;62.93;100469.53;5072914;27;45646;-64
2022/06/25 05:30:05;;;;;;;;;0.00;0.00;;;;;19.19;62.84;100471.94;5076893;27;46165;-64
2022/06/25 05:32:31;;;;;;;;;2.00;2.00;;;;;19.21;62.90;100472.63;5074286;27;45507;-64
2022/06/25 05:34:57;;;;;;;;;1.00;1.00;;;;;19.30;61.95;100478.00;5074514;27;45511;-65
2022/06/25 05:37:25;;;;;;;;;0.00;0.00;;;;;19.37;61.71;100473.72;5076316;27;45164;-63
2022/06/25 05:39:51;;;;;;;;;1.00;1.00;;;;;19.40;61.63;100478.84;5075425;27;46264;-65
2022/06/25 05:42:17;;;;;;;;;1.00;1.00;;;;;19.47;61.76;100478.25;5073824;27;45223;-64
2022/06/25 05:44:43;;;;;;;;;2.33;1.00;;;;;19.45;60.34;100473.00;5074539;27;45346;-66
2022/06/25 05:47:09;;;;;;;;;1.00;1.00;;;;;19.45;60.26;100479.25;5070413;27;45414;-65
2022/06/25 05:49:35;;;;;;;;;0.33;0.33;;;;;19.47;60.38;100478.25;5073996;27;45576;-63
2022/06/25 05:52:01;;;;;;;;;0.67;0.67;;;;;19.42;59.63;100476.84;5108856;27;45384;-64
2022/06/25 05:54:26;;;;;;;;;1.00;1.00;;;;;19.49;59.31;100476.25;5076839;27;45443;-67
2022/06/25 05:56:52;;;;;;;;;1.00;1.00;;;;;19.52;59.48;100463.31;5068989;27;46851;-64
2022/06/25 05:59:18;;;;;;;;;0.00;0.00;;;;;19.54;59.46;100465.91;5083121;27;46321;-66
2022/06/25 06:01:43;;;;;;;;;1.00;1.00;;;;;19.56;59.42;100462.06;5069313;27;45408;-65
2022/06/25 06:04:08;;;;;;;;;1.00;1.00;;;;;19.61;59.38;100465.19;5070057;28;45785;-64
2022/06/25 06:06:34;;;;;;;;;1.00;1.00;;;;;19.70;59.21;100474.25;5075197;27;45484;-65
2022/06/25 06:08:59;;;;;;;;;0.67;0.67;;;;;19.74;59.09;100478.34;5074609;27;45282;-65
2022/06/25 06:11:25;;;;;;;;;0.00;0.00;;;;;19.72;58.31;100478.50;5075091;27;45449;-63
2022/06/25 06:13:50;;;;;;;;;2.00;2.00;;;;;19.76;58.38;100472.78;5073461;27;45408;-64
2022/06/25 06:16:15;;;;;;;;;0.00;0.00;;;;;19.81;57.40;100476.75;5071243;27;45474;-65
2022/06/25 06:18:41;;;;;;;;;1.00;1.00;;;;;19.90;57.03;100469.59;5068951;28;46340;-66
2022/06/25 06:21:06;;;;;;;;;0.33;0.33;;;;;19.95;57.21;100478.13;5073591;27;45399;-65
2022/06/25 06:23:31;;;;;;;;;0.00;0.00;;;;;19.97;57.33;100482.38;5073060;27;45515;-64
2022/06/25 06:25:57;;;;;;;;;1.00;0.00;;;;;19.95;56.95;100483.53;5071563;28;45303;-65
2022/06/25 06:28:22;;;;;;;;;1.67;1.00;;;;;19.92;57.39;100478.41;5074260;27;46327;-66
2022/06/25 06:30:48;;;;;;;;;1.00;1.00;;;;;19.96;57.18;100474.41;5073790;27;45419;-65
2022/06/25 06:33:13;;;;;;;;;0.00;0.00;;;;;20.01;57.03;100472.97;5071675;27;45810;-65
2022/06/25 06:35:38;;;;;;;;;0.00;0.00;;;;;20.07;56.97;100467.97;5075270;27;45549;-66
2022/06/25 06:38:04;;;;;;;;;0.33;0.33;;;;;20.12;56.89;100476.47;5077053;27;45322;-64
2022/06/25 06:40:29;;;;;;;;;1.00;1.00;;;;;20.09;56.68;100480.31;5079251;27;45481;-64
2022/06/25 06:42:56;;;;;;;;;1.00;1.00;;;;;20.13;56.76;100484.41;5077311;27;45456;-65
2022/06/25 06:45:22;;;;;;;;;0.00;0.00;;;;;20.15;56.67;100495.06;5080186;27;45528;-65
2022/06/25 06:47:47;;;;;;;;;0.33;0.33;;;;;20.15;56.35;100479.72;5077448;27;45472;-64
2022/06/25 06:50:13;;;;;;;;;0.00;0.00;;;;;20.12;56.52;100479.16;5073414;27;45453;-65
2022/06/25 06:52:38;;;;;;;;;0.33;0.33;;;;;20.03;56.75;100465.56;5077798;27;46913;-66
2022/06/25 06:55:05;;;;;;;;;1.00;1.00;;;;;20.06;57.25;100479.78;5079573;27;45386;-65
2022/06/25 06:57:32;;;;;;;;;1.00;1.00;;;;;20.08;57.45;100483.19;5093923;27;46055;-64
2022/06/25 06:59:58;;;;;;;;;1.67;1.00;;;;;20.07;57.56;100487.72;5079203;27;45467;-64
2022/06/25 07:02:25;;;;;;;;;0.00;0.00;;;;;20.03;56.03;100486.31;5074212;27;45526;-63
2022/06/25 07:04:52;;;;;;;;;1.00;1.00;;;;;19.99;56.48;100491.16;5091985;27;45675;-65
2022/06/25 07:07:17;;;;;;;;;1.00;1.00;;;;;19.94;56.23;100488.06;5076946;27;46957;-65
2022/06/25 07:09:43;;;;;;;;;1.00;1.00;;;;;19.97;56.68;100481.53;5095953;27;45734;-65
2022/06/25 07:12:08;;;;;;;;;0.67;0.67;;;;;20.00;56.05;100487.47;5080346;27;46195;-62
2022/06/25 07:14:34;;;;;;;;;1.33;1.00;;;;;20.11;56.80;100485.56;5080862;27;46201;-64
2022/06/25 07:16:59;;;;;;;;;3.00;1.33;;;;;20.13;56.24;100491.66;5082203;27;45424;-63
2022/06/25 07:19:25;;;;;;;;;1.00;1.00;;;;;20.18;56.41;100486.66;5080365;27;45358;-64
2022/06/25 07:21:52;;;;;;;;;1.00;1.00;;;;;20.28;56.30;100490.16;5079150;27;45795;-62
2022/06/25 07:24:18;;;;;;;;;0.00;0.00;;;;;20.33;56.13;100493.28;5079271;27;45320;-64
2022/06/25 07:26:43;;;;;;;;;1.33;0.33;;;;;20.36;55.31;100502.91;5074004;27;46419;-63
2022/06/25 07:29:09;;;;;;;;;2.33;1.00;;;;;20.30;55.38;100501.66;5078038;27;46798;-63
2022/06/25 07:31:34;;;;;;;;;0.33;0.33;;;;;20.38;54.02;100495.50;5073601;27;45501;-61
2022/06/25 07:34:00;;;;;;;;;0.00;0.00;;;;;20.41;53.74;100485.25;5079833;27;45740;-61
2022/06/25 07:36:25;;;;;;;;;1.00;1.00;;;;;20.57;52.48;100495.41;5078890;27;45664;-63
2022/06/25 07:38:52;;;;;;;;;0.00;0.00;;;;;20.61;53.86;100505.78;5078558;27;45409;-61
2022/06/25 07:41:17;;;;;;;;;2.00;1.00;;;;;20.70;53.56;100503.13;5076530;27;46637;-61
2022/06/25 07:43:43;;;;;;;;;2.00;1.00;;;;;20.80;53.53;100501.22;5079034;27;45445;-62
2022/06/25 07:46:09;;;;;;;;;1.33;1.33;;;;;20.94;52.71;100513.34;5093899;27;46083;-64
2022/06/25 07:48:35;;;;;;;;;1.33;0.00;;;;;21.03;52.88;100497.06;5086998;27;45687;-65
2022/06/25 07:53:44;;;;;;;;;1.00;1.00;;;;;21.15;52.42;100511.19;5074102;27;45176;-65
2022/06/25 07:56:10;;;;;;;;;1.00;1.00;;;;;21.08;53.21;100510.94;5077425;27;46192;-65
2022/06/25 07:58:36;;;;;;;;;1.00;1.00;;;;;21.10;52.98;100514.38;5078935;28;45499;-64
2022/06/25 08:01:01;;;;;;;;;1.00;1.00;;;;;21.17;52.76;100520.84;5077091;27;45322;-65
2022/06/25 08:03:27;;;;;;;;;1.00;1.00;;;;;21.17;52.54;100520.84;5079142;27;45324;-64
2022/06/25 08:05:53;;;;;;;;;1.00;1.00;;;;;21.10;51.84;100519.78;5077660;27;46373;-65
2022/06/25 08:08:18;;;;;;;;;1.00;1.00;;;;;21.05;52.09;100513.13;5076616;27;45371;-65
2022/06/25 08:10:44;;;;;;;;;2.25;1.00;;;;;21.07;52.64;100524.63;5078746;27;45431;-61
2022/06/25 08:13:09;;;;;;;;;1.00;1.00;;;;;20.99;52.09;100519.16;5078446;27;45392;-63
2022/06/25 08:15:35;;;;;;;;;1.00;1.00;;;;;20.97;51.95;100519.31;5077399;27;46072;-64
2022/06/25 08:18:01;;;;;;;;;1.00;1.00;;;;;21.05;51.83;100523.94;5074574;27;45540;-65
2022/06/25 08:20:27;;;;;;;;;0.67;0.67;;;;;21.09;51.74;100518.03;5072949;27;46223;-63
2022/06/25 08:22:52;;;;;;;;;1.00;1.00;;;;;21.07;51.94;100530.88;5075035;27;45432;-64
2022/06/25 08:25:18;;;;;;;;;2.00;1.00;;;;;20.98;52.21;100526.41;5075308;27;45620;-61
2022/06/25 08:27:49;;;;;;;;;1.00;0.00;;;;;20.99;52.92;100532.69;5077951;27;45356;-58
2022/06/25 08:30:16;;;;;;;;;1.00;1.00;;;;;20.96;51.77;100533.81;5076506;27;45430;-56
2022/06/25 08:32:41;;;;;;;;;1.67;1.00;;;;;20.96;52.07;100533.81;5078081;27;45362;-61
2022/06/25 08:35:07;;;;;;;;;2.00;2.00;;;;;21.01;52.49;100527.97;5078111;27;46071;-62
2022/06/25 08:37:37;;;;;;;;;1.00;1.00;;;;;21.02;51.89;100546.72;5077878;27;45449;-63
2022/06/25 08:40:03;;;;;;;;;3.00;1.00;;;;;20.94;51.91;100543.09;5076302;27;45291;-66
2022/06/25 08:42:29;;;;;;;;;4.00;1.00;;;;;20.86;52.13;100551.97;5077721;27;46023;-60
2022/06/25 08:44:55;;;;;;;;;1.00;1.00;;;;;20.77;51.87;100552.88;5078048;27;46206;-62
2022/06/25 08:47:20;;;;;;;;;1.00;1.00;;;;;20.76;52.81;100545.78;5077092;27;45573;-63
2022/06/25 08:49:45;;;;;;;;;4.00;2.67;;;;;20.77;52.99;100542.06;5077582;27;45372;-60
2022/06/25 08:52:13;;;;;;;;;4.67;1.00;;;;;20.76;52.98;100541.22;5078147;27;45563;-57
2022/06/25 08:54:40;;;;;;;;;1.67;1.00;;;;;20.74;53.16;100545.09;5078296;27;45446;-62
2022/06/25 08:57:08;;;;;;;;;1.00;1.00;;;;;20.69;53.16;100553.63;5076235;28;45524;-62
2022/06/25 08:59:34;;;;;;;;;1.00;1.00;;;;;20.67;52.01;100552.94;5076119;28;45362;-59
2022/06/25 09:01:59;;;;;;;;;3.00;1.67;;;;;20.62;51.80;100544.44;5093421;27;45474;-61
2022/06/25 09:04:25;;;;;;;;;0.00;0.00;;;;;20.63;51.46;100553.41;5077306;27;45572;-58
2022/06/25 09:06:51;;;;;;;;;1.00;1.00;;;;;20.57;51.63;100544.91;5076997;28;45442;-63
2022/06/25 09:09:16;;;;;;;;;1.00;1.00;;;;;20.61;51.48;100557.13;5077735;27;45328;-60
2022/06/25 09:11:50;;;;;;;;;2.67;1.00;;;;;20.61;51.96;100548.16;5074909;28;46931;-59
2022/06/25 09:14:22;;;;;;;;;2.00;1.00;;;;;20.63;51.42;100551.56;5076044;28;46681;-61
2022/06/25 09:16:56;;;;;;;;;2.00;2.00;;;;;20.60;51.43;100551.88;5076733;27;45418;-60
2022/06/25 09:19:35;;;;;;;;;1.67;1.67;;;;;20.59;52.46;100551.03;5077448;27;45352;-62
2022/06/25 09:22:04;;;;;;;;;1.00;1.00;;;;;20.66;52.88;100542.28;5077007;27;45313;-60
2022/06/25 09:24:45;;;;;;;;;2.00;2.00;;;;;20.69;52.91;100545.53;5077074;27;46088;-56
2022/06/25 09:27:10;;;;;;;;;2.00;2.00;;;;;20.72;52.46;100542.53;5075734;27;45342;-60
2022/06/25 09:29:40;;;;;;;;;5.67;2.00;;;;;20.74;50.81;100539.69;5071884;27;45862;-60
2022/06/25 09:32:07;;;;;;;;;1.00;1.00;;;;;20.64;50.67;100534.34;5075353;27;45489;-67
2022/06/25 09:34:34;;;;;;;;;2.00;2.00;;;;;20.64;51.59;100523.53;5062670;28;45736;-59
2022/06/25 09:37:24;;;;;;;;;1.33;1.33;;;;;20.71;50.99;100527.34;5063967;28;46956;-58
2022/06/25 09:39:52;;;;;;;;;1.00;1.00;;;;;20.76;51.04;100527.72;5074716;27;45472;-64
2022/06/25 09:42:28;;;;;;;;;3.00;3.00;;;;;20.72;51.34;100530.88;5074499;27;45591;-63
2022/06/25 09:45:09;;;;;;;;;1.67;1.67;;;;;20.67;50.72;100516.97;5075135;27;46129;-57
2022/06/25 09:47:40;;;;;;;;;2.00;1.00;;;;;20.77;50.60;100524.00;5070737;27;45682;-58
2022/06/25 09:50:09;;;;;;;;;0.00;0.00;;;;;20.64;50.29;100511.88;5074784;27;45479;-57
2022/06/25 09:52:38;;;;;;;;;1.33;1.33;;;;;20.70;51.00;100528.31;5072637;27;45416;-56
2022/06/25 09:55:04;;;;;;;;;1.00;1.00;;;;;20.67;50.78;100531.31;5076440;27;45484;-60
2022/06/25 09:57:31;;;;;;;;;1.00;1.00;;;;;20.59;51.51;100526.69;5075463;27;45263;-59
2022/06/25 09:59:59;;;;;;;;;1.00;1.00;;;;;20.56;52.00;100531.53;5075528;27;45581;-64
2022/06/25 10:02:29;;;;;;;;;2.00;2.00;;;;;20.54;52.11;100539.78;5074089;27;45511;-62
2022/06/25 10:05:02;;;;;;;;;2.00;2.00;;;;;20.55;51.87;100532.53;5076381;27;46255;-63
2022/06/25 10:10:19;;;;;;;;;21.00;18.00;;;;;20.70;51.54;100541.81;5071401;28;45444;-61
2022/06/25 10:12:46;;;;;;;;;2.67;2.67;;;;;20.73;51.11;100532.59;5072155;27;45313;-58
2022/06/25 10:15:16;;;;;;;;;75.75;64.00;;;;;20.79;51.68;100531.97;5071042;27;45976;-58
2022/06/25 10:17:44;;;;;;;;;10.33;8.33;;;;;20.83;51.05;100519.81;5072004;28;45482;-54
2022/06/25 10:20:10;;;;;;;;;3.00;2.67;;;;;20.79;50.94;100526.56;5073415;28;45484;-56
2022/06/25 10:22:37;;;;;;;;;13.67;11.67;;;;;20.68;51.60;100530.31;5073537;27;45449;-63
2022/06/25 10:25:03;;;;;;;;;2.33;2.00;;;;;20.70;51.65;100532.88;5073513;27;46005;-61
2022/06/25 10:27:37;;;;;;;;;1.67;1.67;;;;;20.74;51.75;100518.06;5075172;27;45476;-63
2022/06/25 10:30:03;;;;;;;;;10.33;9.00;;;;;20.83;51.58;100527.94;5075001;27;45809;-58
2022/06/25 10:32:29;;;;;;;;;31.33;30.33;;;;;20.86;50.75;100524.94;5072619;27;45523;-64
2022/06/25 10:34:56;;;;;;;;;3.00;3.00;;;;;20.91;51.01;100528.88;5074257;27;46620;-63
2022/06/25 10:37:22;;;;;;;;;2.00;2.00;;;;;20.99;51.46;100521.88;5074746;27;45428;-59
2022/06/25 10:39:52;;;;;;;;;2.00;2.00;;;;;21.13;52.47;100518.59;5074943;28;45479;-63
2022/06/25 10:45:07;;;;;;;;;2.00;2.00;;;;;21.21;51.70;100519.50;5073030;28;45657;-62
2022/06/25 10:47:41;;;;;;;;;4.00;2.33;;;;;21.32;51.65;100518.44;5076049;27;45397;-61
2022/06/25 10:50:21;;;;;;;;;3.00;3.00;;;;;21.38;51.23;100517.00;5074182;27;45369;-63
2022/06/25 10:53:08;;;;;;;;;2.00;2.00;;;;;21.46;50.55;100525.16;5105152;27;45654;-64
2022/06/25 10:55:34;;;;;;;;;2.00;2.00;;;;;21.45;49.90;100528.88;5107190;27;46179;-64
2022/06/25 10:58:23;;;;;;;;;3.00;3.00;;;;;21.39;50.35;100529.50;5076870;27;45264;-70
2022/06/25 11:00:48;;;;;;;;;4.25;2.00;;;;;21.42;49.84;100529.19;5089062;27;45524;-64
2022/06/25 11:03:16;;;;;;;;;1.67;1.67;;;;;21.48;49.87;100518.59;5073277;27;45495;-65
2022/06/25 11:05:45;;;;;;;;;3.00;3.00;;;;;21.59;50.14;100522.03;5068583;27;45554;-64
2022/06/25 11:08:11;;;;;;;;;2.00;2.00;;;;;21.70;49.01;100516.34;5073233;27;45544;-65
2022/06/25 11:10:38;;;;;;;;;3.33;3.33;;;;;21.73;49.69;100533.13;5075898;27;45413;-66
2022/06/25 11:13:04;;;;;;;;;4.00;4.00;;;;;21.74;49.49;100529.41;5069907;27;45664;-63
2022/06/25 11:15:41;;;;;;;;;3.00;3.00;;;;;21.81;49.56;100518.78;5072748;28;46208;-65
2022/06/25 11:18:13;;;;;;;;;2.50;2.50;;;;;21.89;48.79;100523.41;5073439;27;45452;-64
2022/06/25 11:20:41;;;;;;;;;4.75;2.75;;;;;21.91;49.54;100529.53;5075448;27;45164;-65
2022/06/25 11:23:11;;;;;;;;;2.00;2.00;;;;;21.92;49.26;100528.50;5072174;27;45745;-65
2022/06/25 11:28:48;;;;;;;;;3.75;2.00;;;;;21.75;49.42;100525.72;5087605;27;45364;-65
2022/06/25 11:31:19;;;;;;;;;1.00;1.00;;;;;21.71;49.51;100540.56;5096998;27;45430;-62
2022/06/25 11:33:45;;;;;;;;;3.67;2.00;;;;;21.64;48.50;100534.09;5076692;27;45466;-64
2022/06/25 11:36:11;;;;;;;;;4.00;2.33;;;;;21.60;48.70;100535.41;5076693;27;46314;-63
2022/06/25 11:38:39;;;;;;;;;4.50;3.00;;;;;21.56;49.34;100536.72;5074490;27;45537;-64